sensor_id;sensor_type;location;lat;lon;timestamp;P1;durP1;ratioP1;P2;durP2;ratioP2
81201;SDS011;70845;47.662;-2.750;2023-06-22T09:14:15;8.80;;;3.92;;
81201;SDS011;70845;47.662;-2.750;2023-06-22T09:19:37;7.45;;;3.67;;
81201;SDS011;70845;47.662;-2.750;2023-06-22T09:26:18;6.63;;;3.05;;
81201;SDS011;70845;47.662;-2.750;2023-06-22T09:28:45;3.22;;;2.38;;
81201;SDS011;70845;47.662;-2.750;2023-06-22T09:31:12;6.65;;;3.03;;
81201;SDS011;70845;47.662;-2.750;2023-06-22T09:33:39;6.35;;;2.95;;
81201;SDS011;70845;47.662;-2.750;2023-06-22T09:36:07;7.30;;;3.38;;
81201;SDS011;70845;47.662;-2.750;2023-06-22T09:38:36;4.35;;;3.20;;
81201;SDS011;70845;47.662;-2.750;2023-06-22T09:41:03;4.78;;;2.72;;
81201;SDS011;70845;47.662;-2.750;2023-06-22T09:43:35;9.80;;;3.20;;
81201;SDS011;70845;47.662;-2.750;2023-06-22T09:46:01;5.40;;;2.92;;
81201;SDS011;70845;47.662;-2.750;2023-06-22T09:48:28;6.47;;;3.30;;
81201;SDS011;70845;47.662;-2.750;2023-06-22T09:50:57;6.60;;;3.05;;
81201;SDS011;70845;47.662;-2.750;2023-06-22T09:53:23;6.53;;;2.60;;
81201;SDS011;70845;47.662;-2.750;2023-06-22T09:55:50;4.15;;;2.75;;
81201;SDS011;70845;47.662;-2.750;2023-06-22T09:58:16;4.07;;;2.40;;
81201;SDS011;70845;47.662;-2.750;2023-06-22T10:00:42;4.50;;;2.83;;
81201;SDS011;70845;47.662;-2.750;2023-06-22T10:03:08;7.05;;;2.95;;
81201;SDS011;70845;47.662;-2.750;2023-06-22T10:05:35;5.93;;;2.72;;
81201;SDS011;70845;47.662;-2.750;2023-06-22T10:08:01;5.80;;;3.33;;
81201;SDS011;70845;47.662;-2.750;2023-06-22T10:10:27;7.00;;;2.70;;
81201;SDS011;70845;47.662;-2.750;2023-06-22T10:12:57;7.60;;;3.15;;
81201;SDS011;70845;47.662;-2.750;2023-06-22T10:15:33;5.70;;;3.08;;
81201;SDS011;70845;47.662;-2.750;2023-06-22T10:20:53;5.50;;;2.70;;
81201;SDS011;70845;47.662;-2.750;2023-06-22T10:23:20;4.90;;;2.75;;
81201;SDS011;70845;47.662;-2.750;2023-06-22T10:25:46;4.97;;;2.83;;
81201;SDS011;70845;47.662;-2.750;2023-06-22T10:28:13;4.75;;;2.97;;
81201;SDS011;70845;47.662;-2.750;2023-06-22T10:30:40;6.35;;;2.83;;
81201;SDS011;70845;47.662;-2.750;2023-06-22T10:33:10;5.10;;;2.80;;
81201;SDS011;70845;47.662;-2.750;2023-06-22T10:35:37;6.15;;;2.88;;
81201;SDS011;70845;47.662;-2.750;2023-06-22T10:38:04;6.30;;;2.67;;
81201;SDS011;70845;47.662;-2.750;2023-06-22T10:40:30;4.28;;;2.55;;
81201;SDS011;70845;47.662;-2.750;2023-06-22T10:42:56;6.63;;;2.67;;
81201;SDS011;70845;47.662;-2.750;2023-06-22T10:45:22;5.65;;;2.75;;
81201;SDS011;70845;47.662;-2.750;2023-06-22T10:47:52;4.55;;;2.90;;
81201;SDS011;70845;47.662;-2.750;2023-06-22T10:50:18;5.30;;;2.50;;
81201;SDS011;70845;47.662;-2.750;2023-06-22T10:52:45;5.47;;;2.88;;
81201;SDS011;70845;47.662;-2.750;2023-06-22T10:55:11;6.45;;;2.75;;
81201;SDS011;70845;47.662;-2.750;2023-06-22T10:57:38;4.85;;;2.33;;
81201;SDS011;70845;47.662;-2.750;2023-06-22T11:00:09;4.90;;;2.90;;
81201;SDS011;70845;47.662;-2.750;2023-06-22T11:02:36;5.88;;;3.10;;
81201;SDS011;70845;47.662;-2.750;2023-06-22T11:05:02;4.38;;;2.63;;
81201;SDS011;70845;47.662;-2.750;2023-06-22T11:07:30;6.32;;;2.70;;
81201;SDS011;70845;47.662;-2.750;2023-06-22T11:09:56;8.93;;;2.58;;
81201;SDS011;70845;47.662;-2.750;2023-06-22T11:12:22;7.50;;;2.90;;
81201;SDS011;70845;47.662;-2.750;2023-06-22T11:14:48;5.05;;;2.67;;
81201;SDS011;70845;47.662;-2.750;2023-06-22T11:17:17;8.40;;;2.67;;
81201;SDS011;70845;47.662;-2.750;2023-06-22T11:19:45;5.95;;;2.92;;
81201;SDS011;70845;47.662;-2.750;2023-06-22T11:22:12;5.20;;;2.72;;
81201;SDS011;70845;47.662;-2.750;2023-06-22T11:24:38;4.63;;;2.80;;
81201;SDS011;70845;47.662;-2.750;2023-06-22T11:27:04;6.47;;;2.83;;
81201;SDS011;70845;47.662;-2.750;2023-06-22T11:29:31;6.22;;;3.05;;
81201;SDS011;70845;47.662;-2.750;2023-06-22T11:31:58;4.70;;;2.45;;
81201;SDS011;70845;47.662;-2.750;2023-06-22T11:34:25;5.30;;;2.63;;
81201;SDS011;70845;47.662;-2.750;2023-06-22T11:36:52;4.57;;;2.65;;
81201;SDS011;70845;47.662;-2.750;2023-06-22T11:39:18;4.63;;;2.60;;
81201;SDS011;70845;47.662;-2.750;2023-06-22T11:44:13;5.97;;;2.97;;
81201;SDS011;70845;47.662;-2.750;2023-06-22T11:46:39;4.72;;;2.45;;
81201;SDS011;70845;47.662;-2.750;2023-06-22T11:49:05;6.18;;;2.95;;
81201;SDS011;70845;47.662;-2.750;2023-06-22T11:51:31;5.75;;;2.85;;
81201;SDS011;70845;47.662;-2.750;2023-06-22T11:53:57;3.60;;;2.25;;
81201;SDS011;70845;47.662;-2.750;2023-06-22T11:56:24;4.50;;;2.63;;
81201;SDS011;70845;47.662;-2.750;2023-06-22T11:58:50;4.82;;;2.55;;
81201;SDS011;70845;47.662;-2.750;2023-06-22T12:01:16;3.50;;;2.47;;
81201;SDS011;70845;47.662;-2.750;2023-06-22T12:06:13;7.75;;;2.80;;
81201;SDS011;70845;47.662;-2.750;2023-06-22T12:08:39;6.10;;;2.83;;
81201;SDS011;70845;47.662;-2.750;2023-06-22T12:11:06;4.80;;;2.58;;
81201;SDS011;70845;47.662;-2.750;2023-06-22T12:13:32;4.88;;;2.75;;
81201;SDS011;70845;47.662;-2.750;2023-06-22T12:15:58;5.63;;;2.95;;
81201;SDS011;70845;47.662;-2.750;2023-06-22T12:18:25;3.63;;;2.38;;
81201;SDS011;70845;47.662;-2.750;2023-06-22T12:20:51;6.45;;;3.00;;
81201;SDS011;70845;47.662;-2.750;2023-06-22T12:23:18;7.05;;;2.65;;
81201;SDS011;70845;47.662;-2.750;2023-06-22T12:25:45;4.25;;;2.50;;
81201;SDS011;70845;47.662;-2.750;2023-06-22T12:28:13;4.90;;;2.78;;
81201;SDS011;70845;47.662;-2.750;2023-06-22T12:30:39;4.97;;;2.60;;
81201;SDS011;70845;47.662;-2.750;2023-06-22T12:33:05;5.03;;;2.50;;
81201;SDS011;70845;47.662;-2.750;2023-06-22T12:35:31;7.15;;;3.03;;
81201;SDS011;70845;47.662;-2.750;2023-06-22T12:37:57;3.42;;;2.38;;
81201;SDS011;70845;47.662;-2.750;2023-06-22T12:40:23;3.88;;;2.30;;
81201;SDS011;70845;47.662;-2.750;2023-06-22T12:42:49;6.20;;;3.03;;
81201;SDS011;70845;47.662;-2.750;2023-06-22T12:45:16;4.70;;;2.72;;
81201;SDS011;70845;47.662;-2.750;2023-06-22T12:47:43;4.63;;;2.80;;
81201;SDS011;70845;47.662;-2.750;2023-06-22T12:50:09;4.90;;;2.50;;
81201;SDS011;70845;47.662;-2.750;2023-06-22T12:52:36;5.85;;;2.72;;
81201;SDS011;70845;47.662;-2.750;2023-06-22T12:55:06;5.43;;;2.53;;
81201;SDS011;70845;47.662;-2.750;2023-06-22T12:57:34;4.07;;;2.33;;
81201;SDS011;70845;47.662;-2.750;2023-06-22T12:59:59;5.03;;;2.67;;
81201;SDS011;70845;47.662;-2.750;2023-06-22T13:02:26;4.35;;;2.30;;
81201;SDS011;70845;47.662;-2.750;2023-06-22T13:04:52;3.95;;;2.67;;
81201;SDS011;70845;47.662;-2.750;2023-06-22T13:07:22;5.60;;;2.55;;
81201;SDS011;70845;47.662;-2.750;2023-06-22T13:09:48;4.13;;;2.63;;
81201;SDS011;70845;47.662;-2.750;2023-06-22T13:12:17;3.15;;;2.28;;
81201;SDS011;70845;47.662;-2.750;2023-06-22T13:14:45;3.90;;;2.67;;
81201;SDS011;70845;47.662;-2.750;2023-06-22T13:17:13;4.68;;;2.30;;
81201;SDS011;70845;47.662;-2.750;2023-06-22T13:19:39;5.35;;;2.38;;
81201;SDS011;70845;47.662;-2.750;2023-06-22T13:22:09;3.38;;;2.45;;
81201;SDS011;70845;47.662;-2.750;2023-06-22T13:24:58;5.65;;;2.38;;
81201;SDS011;70845;47.662;-2.750;2023-06-22T13:27:25;7.80;;;2.95;;
81201;SDS011;70845;47.662;-2.750;2023-06-22T13:29:52;4.22;;;2.30;;
81201;SDS011;70845;47.662;-2.750;2023-06-22T13:32:18;4.00;;;2.17;;
81201;SDS011;70845;47.662;-2.750;2023-06-22T13:34:44;3.65;;;2.40;;
81201;SDS011;70845;47.662;-2.750;2023-06-22T13:37:10;5.30;;;2.83;;
81201;SDS011;70845;47.662;-2.750;2023-06-22T13:39:36;4.82;;;2.50;;
81201;SDS011;70845;47.662;-2.750;2023-06-22T13:42:04;5.10;;;2.65;;
81201;SDS011;70845;47.662;-2.750;2023-06-22T13:44:31;4.82;;;2.15;;
81201;SDS011;70845;47.662;-2.750;2023-06-22T13:47:05;3.55;;;2.20;;
81201;SDS011;70845;47.662;-2.750;2023-06-22T13:49:35;5.25;;;2.35;;
81201;SDS011;70845;47.662;-2.750;2023-06-22T13:52:03;5.13;;;2.53;;
81201;SDS011;70845;47.662;-2.750;2023-06-22T13:54:33;5.18;;;2.80;;
81201;SDS011;70845;47.662;-2.750;2023-06-22T13:57:01;7.60;;;2.65;;
81201;SDS011;70845;47.662;-2.750;2023-06-22T13:59:39;6.22;;;2.70;;
81201;SDS011;70845;47.662;-2.750;2023-06-22T14:02:06;3.63;;;1.67;;
81201;SDS011;70845;47.662;-2.750;2023-06-22T14:04:32;4.68;;;2.38;;
81201;SDS011;70845;47.662;-2.750;2023-06-22T14:06:58;4.07;;;2.38;;
81201;SDS011;70845;47.662;-2.750;2023-06-22T14:09:24;5.75;;;2.22;;
81201;SDS011;70845;47.662;-2.750;2023-06-22T14:11:50;6.65;;;2.38;;
81201;SDS011;70845;47.662;-2.750;2023-06-22T14:14:16;4.00;;;2.35;;
81201;SDS011;70845;47.662;-2.750;2023-06-22T14:16:42;8.73;;;2.58;;
81201;SDS011;70845;47.662;-2.750;2023-06-22T14:19:08;6.80;;;2.10;;
81201;SDS011;70845;47.662;-2.750;2023-06-22T14:21:34;4.80;;;2.70;;
81201;SDS011;70845;47.662;-2.750;2023-06-22T14:24:00;4.60;;;2.60;;
81201;SDS011;70845;47.662;-2.750;2023-06-22T14:26:26;5.07;;;2.30;;
81201;SDS011;70845;47.662;-2.750;2023-06-22T14:28:53;7.38;;;2.65;;
81201;SDS011;70845;47.662;-2.750;2023-06-22T14:31:19;6.95;;;2.50;;
81201;SDS011;70845;47.662;-2.750;2023-06-22T14:33:46;3.78;;;2.17;;
81201;SDS011;70845;47.662;-2.750;2023-06-22T14:36:16;4.65;;;2.60;;
81201;SDS011;70845;47.662;-2.750;2023-06-22T14:38:43;5.00;;;2.30;;
81201;SDS011;70845;47.662;-2.750;2023-06-22T14:41:09;5.43;;;1.90;;
81201;SDS011;70845;47.662;-2.750;2023-06-22T14:43:35;3.55;;;2.15;;
81201;SDS011;70845;47.662;-2.750;2023-06-22T14:46:03;7.40;;;2.38;;
81201;SDS011;70845;47.662;-2.750;2023-06-22T14:48:29;3.67;;;2.03;;
81201;SDS011;70845;47.662;-2.750;2023-06-22T14:50:55;3.47;;;2.30;;
81201;SDS011;70845;47.662;-2.750;2023-06-22T14:53:23;3.28;;;2.38;;
81201;SDS011;70845;47.662;-2.750;2023-06-22T14:55:50;3.97;;;2.00;;
81201;SDS011;70845;47.662;-2.750;2023-06-22T14:58:15;4.28;;;2.60;;
81201;SDS011;70845;47.662;-2.750;2023-06-22T15:00:41;3.08;;;1.95;;
81201;SDS011;70845;47.662;-2.750;2023-06-22T15:03:07;4.57;;;2.55;;
81201;SDS011;70845;47.662;-2.750;2023-06-22T15:05:36;5.28;;;2.60;;
81201;SDS011;70845;47.662;-2.750;2023-06-22T15:08:02;3.90;;;2.30;;
81201;SDS011;70845;47.662;-2.750;2023-06-22T15:10:32;4.28;;;2.53;;
81201;SDS011;70845;47.662;-2.750;2023-06-22T15:12:59;6.05;;;2.47;;
81201;SDS011;70845;47.662;-2.750;2023-06-22T15:15:30;4.63;;;2.58;;
81201;SDS011;70845;47.662;-2.750;2023-06-22T15:17:56;5.38;;;1.92;;
81201;SDS011;70845;47.662;-2.750;2023-06-22T15:20:23;5.70;;;2.03;;
81201;SDS011;70845;47.662;-2.750;2023-06-22T15:22:49;3.35;;;2.35;;
81201;SDS011;70845;47.662;-2.750;2023-06-22T15:25:15;4.70;;;2.05;;
81201;SDS011;70845;47.662;-2.750;2023-06-22T15:27:41;3.97;;;1.85;;
81201;SDS011;70845;47.662;-2.750;2023-06-22T15:30:07;3.80;;;2.10;;
81201;SDS011;70845;47.662;-2.750;2023-06-22T15:32:33;4.82;;;2.42;;
81201;SDS011;70845;47.662;-2.750;2023-06-22T15:35:01;4.32;;;2.22;;
81201;SDS011;70845;47.662;-2.750;2023-06-22T15:37:33;4.55;;;2.53;;
81201;SDS011;70845;47.662;-2.750;2023-06-22T15:40:09;3.55;;;2.15;;
81201;SDS011;70845;47.662;-2.750;2023-06-22T15:42:37;3.63;;;2.55;;
81201;SDS011;70845;47.662;-2.750;2023-06-22T15:45:04;4.40;;;1.90;;
81201;SDS011;70845;47.662;-2.750;2023-06-22T15:47:31;5.05;;;2.33;;
81201;SDS011;70845;47.662;-2.750;2023-06-22T15:50:02;5.32;;;2.33;;
81201;SDS011;70845;47.662;-2.750;2023-06-22T15:52:37;4.82;;;2.30;;
81201;SDS011;70845;47.662;-2.750;2023-06-22T15:55:07;6.32;;;2.28;;
81201;SDS011;70845;47.662;-2.750;2023-06-22T15:57:37;5.75;;;2.33;;
81201;SDS011;70845;47.662;-2.750;2023-06-22T16:00:04;4.13;;;1.98;;
81201;SDS011;70845;47.662;-2.750;2023-06-22T16:02:32;4.85;;;2.15;;
81201;SDS011;70845;47.662;-2.750;2023-06-22T16:04:58;3.90;;;1.98;;
81201;SDS011;70845;47.662;-2.750;2023-06-22T16:07:25;5.70;;;2.35;;
81201;SDS011;70845;47.662;-2.750;2023-06-22T16:09:52;7.10;;;2.55;;
81201;SDS011;70845;47.662;-2.750;2023-06-22T16:12:19;2.85;;;2.13;;
81201;SDS011;70845;47.662;-2.750;2023-06-22T16:14:49;3.80;;;1.75;;
81201;SDS011;70845;47.662;-2.750;2023-06-22T16:17:15;2.45;;;1.85;;
81201;SDS011;70845;47.662;-2.750;2023-06-22T16:19:42;3.13;;;2.15;;
81201;SDS011;70845;47.662;-2.750;2023-06-22T16:22:10;4.53;;;2.45;;
81201;SDS011;70845;47.662;-2.750;2023-06-22T16:24:39;5.15;;;2.10;;
81201;SDS011;70845;47.662;-2.750;2023-06-22T16:27:10;4.32;;;1.92;;
81201;SDS011;70845;47.662;-2.750;2023-06-22T16:29:37;3.75;;;1.75;;
81201;SDS011;70845;47.662;-2.750;2023-06-22T16:32:05;3.88;;;1.90;;
81201;SDS011;70845;47.662;-2.750;2023-06-22T16:34:43;4.68;;;1.95;;
81201;SDS011;70845;47.662;-2.750;2023-06-22T16:37:11;4.60;;;1.95;;
81201;SDS011;70845;47.662;-2.750;2023-06-22T16:39:38;3.78;;;2.10;;
81201;SDS011;70845;47.662;-2.750;2023-06-22T16:42:04;3.63;;;1.73;;
81201;SDS011;70845;47.662;-2.750;2023-06-22T16:44:30;4.75;;;2.40;;
81201;SDS011;70845;47.662;-2.750;2023-06-22T16:46:59;5.93;;;2.25;;
81201;SDS011;70845;47.662;-2.750;2023-06-22T16:49:26;4.45;;;2.28;;
81201;SDS011;70845;47.662;-2.750;2023-06-22T16:51:52;4.32;;;2.22;;
81201;SDS011;70845;47.662;-2.750;2023-06-22T16:54:18;4.35;;;1.95;;
81201;SDS011;70845;47.662;-2.750;2023-06-22T16:56:45;3.47;;;2.03;;
81201;SDS011;70845;47.662;-2.750;2023-06-22T16:59:12;4.90;;;2.10;;
81201;SDS011;70845;47.662;-2.750;2023-06-22T17:01:41;3.65;;;2.20;;
81201;SDS011;70845;47.662;-2.750;2023-06-22T17:04:23;3.90;;;1.85;;
81201;SDS011;70845;47.662;-2.750;2023-06-22T17:06:57;3.67;;;1.67;;
81201;SDS011;70845;47.662;-2.750;2023-06-22T17:09:27;5.07;;;2.28;;
81201;SDS011;70845;47.662;-2.750;2023-06-22T17:11:54;5.00;;;2.10;;
81201;SDS011;70845;47.662;-2.750;2023-06-22T17:14:20;3.35;;;1.90;;
81201;SDS011;70845;47.662;-2.750;2023-06-22T17:16:49;7.18;;;2.40;;
81201;SDS011;70845;47.662;-2.750;2023-06-22T17:19:16;5.55;;;2.25;;
81201;SDS011;70845;47.662;-2.750;2023-06-22T17:21:47;2.40;;;1.55;;
81201;SDS011;70845;47.662;-2.750;2023-06-22T17:24:17;5.70;;;2.58;;
81201;SDS011;70845;47.662;-2.750;2023-06-22T17:26:48;7.07;;;2.40;;
81201;SDS011;70845;47.662;-2.750;2023-06-22T17:29:16;4.53;;;1.90;;
81201;SDS011;70845;47.662;-2.750;2023-06-22T17:31:42;3.08;;;2.00;;
81201;SDS011;70845;47.662;-2.750;2023-06-22T17:37:18;3.33;;;2.05;;
81201;SDS011;70845;47.662;-2.750;2023-06-22T17:39:51;5.63;;;1.98;;
81201;SDS011;70845;47.662;-2.750;2023-06-22T17:45:23;3.45;;;2.10;;
81201;SDS011;70845;47.662;-2.750;2023-06-22T17:47:49;3.22;;;1.60;;
81201;SDS011;70845;47.662;-2.750;2023-06-22T17:50:27;2.35;;;1.75;;
81201;SDS011;70845;47.662;-2.750;2023-06-22T17:52:59;4.20;;;2.17;;
81201;SDS011;70845;47.662;-2.750;2023-06-22T17:55:25;5.15;;;2.28;;
81201;SDS011;70845;47.662;-2.750;2023-06-22T17:57:55;2.97;;;1.95;;
81201;SDS011;70845;47.662;-2.750;2023-06-22T18:00:23;3.38;;;1.98;;
81201;SDS011;70845;47.662;-2.750;2023-06-22T18:03:02;4.85;;;2.30;;
81201;SDS011;70845;47.662;-2.750;2023-06-22T18:06:25;2.70;;;1.77;;
81201;SDS011;70845;47.662;-2.750;2023-06-22T18:09:16;3.17;;;1.77;;
81201;SDS011;70845;47.662;-2.750;2023-06-22T18:11:49;3.67;;;1.90;;
81201;SDS011;70845;47.662;-2.750;2023-06-22T18:14:42;4.40;;;1.83;;
81201;SDS011;70845;47.662;-2.750;2023-06-22T18:17:17;2.67;;;2.00;;
81201;SDS011;70845;47.662;-2.750;2023-06-22T18:22:49;4.70;;;1.85;;
81201;SDS011;70845;47.662;-2.750;2023-06-22T18:25:15;2.83;;;1.48;;
81201;SDS011;70845;47.662;-2.750;2023-06-22T18:27:45;5.75;;;1.90;;
81201;SDS011;70845;47.662;-2.750;2023-06-22T18:30:14;2.97;;;1.60;;
81201;SDS011;70845;47.662;-2.750;2023-06-22T18:32:43;4.25;;;1.80;;
81201;SDS011;70845;47.662;-2.750;2023-06-22T18:35:09;6.57;;;1.90;;
81201;SDS011;70845;47.662;-2.750;2023-06-22T18:37:42;5.70;;;2.17;;
81201;SDS011;70845;47.662;-2.750;2023-06-22T18:40:13;5.40;;;2.10;;
81201;SDS011;70845;47.662;-2.750;2023-06-22T18:42:46;4.63;;;2.13;;
81201;SDS011;70845;47.662;-2.750;2023-06-22T18:45:26;3.10;;;1.63;;
81201;SDS011;70845;47.662;-2.750;2023-06-22T18:50:37;4.35;;;1.85;;
81201;SDS011;70845;47.662;-2.750;2023-06-22T18:53:17;3.90;;;2.00;;
81201;SDS011;70845;47.662;-2.750;2023-06-22T18:55:50;4.72;;;1.95;;
81201;SDS011;70845;47.662;-2.750;2023-06-22T19:00:53;5.63;;;2.10;;
81201;SDS011;70845;47.662;-2.750;2023-06-22T19:03:40;2.95;;;1.83;;
81201;SDS011;70845;47.662;-2.750;2023-06-22T19:06:06;2.30;;;1.58;;
81201;SDS011;70845;47.662;-2.750;2023-06-22T19:11:45;2.35;;;1.63;;
81201;SDS011;70845;47.662;-2.750;2023-06-22T19:14:19;3.22;;;1.90;;
81201;SDS011;70845;47.662;-2.750;2023-06-22T19:16:46;3.72;;;2.22;;
81201;SDS011;70845;47.662;-2.750;2023-06-22T19:19:13;2.67;;;1.85;;
81201;SDS011;70845;47.662;-2.750;2023-06-22T19:21:40;6.13;;;1.95;;
81201;SDS011;70845;47.662;-2.750;2023-06-22T19:24:07;3.03;;;1.80;;
81201;SDS011;70845;47.662;-2.750;2023-06-22T19:26:34;3.10;;;1.88;;
81201;SDS011;70845;47.662;-2.750;2023-06-22T19:29:01;4.95;;;1.92;;
81201;SDS011;70845;47.662;-2.750;2023-06-22T19:31:42;2.75;;;1.80;;
81201;SDS011;70845;47.662;-2.750;2023-06-22T19:34:11;3.33;;;1.80;;
81201;SDS011;70845;47.662;-2.750;2023-06-22T19:36:39;4.75;;;2.03;;
81201;SDS011;70845;47.662;-2.750;2023-06-22T19:39:06;4.20;;;2.45;;
81201;SDS011;70845;47.662;-2.750;2023-06-22T19:41:32;5.30;;;1.90;;
81201;SDS011;70845;47.662;-2.750;2023-06-22T19:43:59;4.28;;;1.83;;
81201;SDS011;70845;47.662;-2.750;2023-06-22T19:46:29;2.80;;;1.73;;
81201;SDS011;70845;47.662;-2.750;2023-06-22T19:48:58;4.80;;;1.92;;
81201;SDS011;70845;47.662;-2.750;2023-06-22T19:51:30;4.55;;;1.90;;
81201;SDS011;70845;47.662;-2.750;2023-06-22T19:54:08;4.00;;;2.30;;
81201;SDS011;70845;47.662;-2.750;2023-06-22T19:56:40;4.22;;;2.30;;
81201;SDS011;70845;47.662;-2.750;2023-06-22T19:59:10;4.75;;;1.90;;
81201;SDS011;70845;47.662;-2.750;2023-06-22T20:01:38;3.08;;;2.00;;
81201;SDS011;70845;47.662;-2.750;2023-06-22T20:04:07;3.35;;;2.10;;
81201;SDS011;70845;47.662;-2.750;2023-06-22T20:09:31;3.47;;;2.20;;
81201;SDS011;70845;47.662;-2.750;2023-06-22T20:11:59;4.55;;;2.10;;
81201;SDS011;70845;47.662;-2.750;2023-06-22T20:14:34;5.35;;;2.30;;
81201;SDS011;70845;47.662;-2.750;2023-06-22T20:19:37;6.32;;;2.35;;
81201;SDS011;70845;47.662;-2.750;2023-06-22T20:22:10;3.78;;;2.03;;
81201;SDS011;70845;47.662;-2.750;2023-06-22T20:24:36;4.63;;;2.13;;
81201;SDS011;70845;47.662;-2.750;2023-06-22T20:27:09;4.47;;;2.17;;
81201;SDS011;70845;47.662;-2.750;2023-06-22T20:29:38;3.42;;;1.90;;
81201;SDS011;70845;47.662;-2.750;2023-06-22T20:34:39;4.35;;;2.38;;
81201;SDS011;70845;47.662;-2.750;2023-06-22T20:37:10;3.53;;;1.77;;
81201;SDS011;70845;47.662;-2.750;2023-06-22T20:39:37;5.65;;;2.35;;
81201;SDS011;70845;47.662;-2.750;2023-06-22T20:42:04;3.30;;;2.13;;
81201;SDS011;70845;47.662;-2.750;2023-06-22T20:44:31;5.85;;;2.45;;
81201;SDS011;70845;47.662;-2.750;2023-06-22T20:46:59;3.90;;;2.30;;
81201;SDS011;70845;47.662;-2.750;2023-06-22T20:49:26;4.93;;;2.25;;
81201;SDS011;70845;47.662;-2.750;2023-06-22T20:51:52;5.53;;;2.35;;
81201;SDS011;70845;47.662;-2.750;2023-06-22T20:54:20;4.70;;;2.22;;
81201;SDS011;70845;47.662;-2.750;2023-06-22T20:56:46;5.47;;;2.05;;
81201;SDS011;70845;47.662;-2.750;2023-06-22T20:59:12;3.65;;;2.30;;
81201;SDS011;70845;47.662;-2.750;2023-06-22T21:01:39;3.78;;;2.13;;
81201;SDS011;70845;47.662;-2.750;2023-06-22T21:04:06;4.10;;;2.38;;
81201;SDS011;70845;47.662;-2.750;2023-06-22T21:06:34;4.40;;;1.98;;
81201;SDS011;70845;47.662;-2.750;2023-06-22T21:09:00;3.20;;;2.20;;
81201;SDS011;70845;47.662;-2.750;2023-06-22T21:11:27;4.57;;;2.20;;
81201;SDS011;70845;47.662;-2.750;2023-06-22T21:13:53;4.60;;;2.15;;
81201;SDS011;70845;47.662;-2.750;2023-06-22T21:16:19;3.60;;;2.40;;
81201;SDS011;70845;47.662;-2.750;2023-06-22T21:18:45;3.50;;;2.33;;
81201;SDS011;70845;47.662;-2.750;2023-06-22T21:21:12;4.72;;;2.15;;
81201;SDS011;70845;47.662;-2.750;2023-06-22T21:23:40;3.55;;;2.17;;
81201;SDS011;70845;47.662;-2.750;2023-06-22T21:26:06;7.47;;;2.38;;
81201;SDS011;70845;47.662;-2.750;2023-06-22T21:28:33;3.60;;;2.10;;
81201;SDS011;70845;47.662;-2.750;2023-06-22T21:30:58;3.45;;;1.75;;
81201;SDS011;70845;47.662;-2.750;2023-06-22T21:33:24;7.47;;;2.05;;
81201;SDS011;70845;47.662;-2.750;2023-06-22T21:35:51;6.47;;;2.35;;
81201;SDS011;70845;47.662;-2.750;2023-06-22T21:38:18;3.72;;;1.95;;
81201;SDS011;70845;47.662;-2.750;2023-06-22T21:40:45;3.83;;;2.13;;
81201;SDS011;70845;47.662;-2.750;2023-06-22T21:43:11;4.10;;;2.03;;
81201;SDS011;70845;47.662;-2.750;2023-06-22T21:45:39;6.30;;;2.78;;
81201;SDS011;70845;47.662;-2.750;2023-06-22T21:48:05;3.15;;;2.03;;
81201;SDS011;70845;47.662;-2.750;2023-06-22T21:50:31;7.93;;;2.58;;
81201;SDS011;70845;47.662;-2.750;2023-06-22T21:52:57;6.78;;;2.83;;
81201;SDS011;70845;47.662;-2.750;2023-06-22T21:55:24;4.95;;;2.55;;
81201;SDS011;70845;47.662;-2.750;2023-06-22T21:57:50;3.25;;;1.92;;
81201;SDS011;70845;47.662;-2.750;2023-06-22T22:00:18;3.92;;;1.88;;
81201;SDS011;70845;47.662;-2.750;2023-06-22T22:02:46;5.10;;;2.20;;
81201;SDS011;70845;47.662;-2.750;2023-06-22T22:05:12;3.13;;;2.05;;
81201;SDS011;70845;47.662;-2.750;2023-06-22T22:07:38;4.93;;;2.50;;
81201;SDS011;70845;47.662;-2.750;2023-06-22T22:10:04;8.65;;;2.60;;
81201;SDS011;70845;47.662;-2.750;2023-06-22T22:12:34;3.53;;;1.90;;
81201;SDS011;70845;47.662;-2.750;2023-06-22T22:15:01;3.35;;;2.20;;
81201;SDS011;70845;47.662;-2.750;2023-06-22T22:17:27;5.18;;;2.60;;
81201;SDS011;70845;47.662;-2.750;2023-06-22T22:19:53;4.80;;;2.20;;
81201;SDS011;70845;47.662;-2.750;2023-06-22T22:22:20;4.97;;;2.35;;
81201;SDS011;70845;47.662;-2.750;2023-06-22T22:24:50;6.18;;;2.30;;
81201;SDS011;70845;47.662;-2.750;2023-06-22T22:27:16;3.88;;;2.10;;
81201;SDS011;70845;47.662;-2.750;2023-06-22T22:32:37;3.80;;;2.17;;
81201;SDS011;70845;47.662;-2.750;2023-06-22T22:35:03;4.68;;;2.35;;
81201;SDS011;70845;47.662;-2.750;2023-06-22T22:37:32;2.80;;;1.95;;
81201;SDS011;70845;47.662;-2.750;2023-06-22T22:39:58;3.35;;;1.92;;
81201;SDS011;70845;47.662;-2.750;2023-06-22T22:42:31;3.95;;;2.05;;
81201;SDS011;70845;47.662;-2.750;2023-06-22T22:45:00;3.78;;;1.88;;
81201;SDS011;70845;47.662;-2.750;2023-06-22T22:47:32;3.58;;;1.90;;
81201;SDS011;70845;47.662;-2.750;2023-06-22T22:49:59;3.22;;;1.45;;
81201;SDS011;70845;47.662;-2.750;2023-06-22T22:55:00;4.43;;;2.35;;
81201;SDS011;70845;47.662;-2.750;2023-06-22T22:57:28;2.42;;;1.63;;
81201;SDS011;70845;47.662;-2.750;2023-06-22T22:59:54;4.88;;;2.65;;
81201;SDS011;70845;47.662;-2.750;2023-06-22T23:02:20;3.25;;;1.63;;
81201;SDS011;70845;47.662;-2.750;2023-06-22T23:07:21;3.08;;;1.83;;
81201;SDS011;70845;47.662;-2.750;2023-06-22T23:09:48;3.15;;;2.10;;
81201;SDS011;70845;47.662;-2.750;2023-06-22T23:12:14;4.35;;;2.22;;
81201;SDS011;70845;47.662;-2.750;2023-06-22T23:14:39;3.83;;;2.20;;
81201;SDS011;70845;47.662;-2.750;2023-06-22T23:17:06;3.30;;;1.80;;
81201;SDS011;70845;47.662;-2.750;2023-06-22T23:19:32;2.60;;;1.80;;
81201;SDS011;70845;47.662;-2.750;2023-06-22T23:21:58;2.28;;;1.65;;
81201;SDS011;70845;47.662;-2.750;2023-06-22T23:24:25;4.93;;;2.20;;
81201;SDS011;70845;47.662;-2.750;2023-06-22T23:26:51;5.72;;;1.90;;
81201;SDS011;70845;47.662;-2.750;2023-06-22T23:29:16;3.70;;;2.05;;
81201;SDS011;70845;47.662;-2.750;2023-06-22T23:31:43;3.90;;;2.20;;
81201;SDS011;70845;47.662;-2.750;2023-06-22T23:34:09;3.05;;;1.95;;
81201;SDS011;70845;47.662;-2.750;2023-06-22T23:36:36;4.30;;;1.98;;
81201;SDS011;70845;47.662;-2.750;2023-06-22T23:39:03;3.60;;;1.80;;
81201;SDS011;70845;47.662;-2.750;2023-06-22T23:41:29;4.32;;;2.25;;
81201;SDS011;70845;47.662;-2.750;2023-06-22T23:43:56;2.50;;;1.70;;
81201;SDS011;70845;47.662;-2.750;2023-06-22T23:46:22;3.25;;;1.77;;
81201;SDS011;70845;47.662;-2.750;2023-06-22T23:48:49;2.67;;;1.75;;
81201;SDS011;70845;47.662;-2.750;2023-06-22T23:51:16;3.55;;;1.90;;
81201;SDS011;70845;47.662;-2.750;2023-06-22T23:53:42;3.97;;;2.30;;
81201;SDS011;70845;47.662;-2.750;2023-06-22T23:56:08;3.53;;;1.73;;
81201;SDS011;70845;47.662;-2.750;2023-06-22T23:58:34;3.47;;;2.13;;
